createdAt,value
2023-03-03T00:02:12.424Z,2.05
2023-03-03T00:04:40.489Z,2.05
2023-03-03T00:07:08.346Z,2.07
2023-03-03T00:09:36.069Z,2.07
2023-03-03T00:12:15.233Z,2.04
2023-03-03T00:14:43.212Z,2.03
2023-03-03T00:17:22.418Z,2.06
2023-03-03T00:19:51.311Z,2.08
2023-03-03T00:22:33.742Z,2.07
2023-03-03T00:25:30.103Z,2.01
2023-03-03T00:28:28.035Z,1.97
2023-03-03T00:30:59.739Z,2.01
2023-03-03T00:33:34.135Z,2.04
2023-03-03T00:36:29.588Z,2.06
2023-03-03T00:39:26.776Z,2.09
2023-03-03T00:41:55.122Z,2.10
2023-03-03T00:44:43.163Z,2.10
2023-03-03T00:47:32.276Z,2.05
2023-03-03T00:50:11.283Z,2.01
2023-03-03T00:52:47.343Z,2.00
2023-03-03T00:55:15.185Z,2.01
2023-03-03T00:57:42.935Z,1.98
2023-03-03T01:00:12.452Z,1.95
2023-03-03T01:02:40.343Z,1.96
2023-03-03T01:05:10.831Z,1.92
2023-03-03T01:07:38.458Z,1.89
2023-03-03T01:10:07.569Z,1.88
2023-03-03T01:12:35.891Z,1.86
2023-03-03T01:15:05.506Z,1.85
2023-03-03T01:17:34.128Z,1.85
2023-03-03T01:20:02.718Z,1.85
2023-03-03T01:22:30.443Z,1.86
2023-03-03T01:25:00.218Z,1.88
2023-03-03T01:27:28.222Z,1.89
2023-03-03T01:29:57.841Z,1.90
2023-03-03T01:32:26.013Z,1.93
2023-03-03T01:34:54.410Z,1.94
2023-03-03T01:37:22.460Z,1.99
2023-03-03T01:39:51.889Z,2.03
2023-03-03T01:42:22.602Z,2.08
2023-03-03T01:45:12.347Z,2.14
2023-03-03T01:48:03.617Z,2.18
2023-03-03T01:50:51.288Z,2.24
2023-03-03T01:53:22.773Z,2.30
2023-03-03T01:55:52.535Z,2.34
2023-03-03T01:58:28.054Z,2.39
2023-03-03T02:01:04.949Z,2.44
2023-03-03T02:03:34.958Z,2.46
2023-03-03T02:06:10.091Z,2.49
2023-03-03T02:09:08.378Z,2.49
2023-03-03T02:11:38.747Z,2.49
2023-03-03T02:14:06.819Z,2.48
2023-03-03T02:16:34.982Z,2.49
2023-03-03T02:19:06.453Z,2.49
2023-03-03T02:21:34.463Z,2.48
2023-03-03T02:24:19.742Z,2.48
2023-03-03T02:26:48.608Z,2.48
2023-03-03T02:29:16.573Z,2.47
2023-03-03T02:31:44.584Z,2.48
2023-03-03T02:34:12.610Z,2.46
2023-03-03T02:36:41.860Z,2.44
2023-03-03T02:39:23.536Z,2.43
2023-03-03T02:42:24.486Z,2.43
2023-03-03T02:44:54.141Z,2.45
2023-03-03T02:47:22.065Z,2.44
2023-03-03T02:49:49.869Z,2.44
2023-03-03T02:52:18.829Z,2.43
2023-03-03T02:54:47.287Z,2.43
2023-03-03T02:57:15.106Z,2.47
2023-03-03T02:59:42.958Z,2.47
2023-03-03T03:02:12.759Z,2.48
2023-03-03T03:04:40.720Z,2.50
2023-03-03T03:07:11.362Z,2.50
2023-03-03T03:09:42.500Z,2.54
2023-03-03T03:12:15.390Z,2.56
2023-03-03T03:14:43.455Z,2.60
2023-03-03T03:17:12.247Z,2.63
2023-03-03T03:19:40.891Z,2.66
2023-03-03T03:22:08.868Z,2.69
2023-03-03T03:24:36.796Z,2.67
2023-03-03T03:27:06.463Z,2.67
2023-03-03T03:29:35.057Z,2.68
2023-03-03T03:32:03.079Z,2.70
2023-03-03T03:34:30.985Z,2.71
2023-03-03T03:36:58.957Z,2.68
2023-03-03T03:39:27.481Z,2.67
2023-03-03T03:41:55.610Z,2.66
2023-03-03T03:44:24.822Z,2.63
2023-03-03T03:46:52.819Z,2.63
2023-03-03T03:49:21.164Z,2.60
2023-03-03T03:51:49.976Z,2.57
2023-03-03T03:54:19.277Z,2.55
2023-03-03T03:56:47.106Z,2.56
2023-03-03T03:59:14.983Z,2.58
2023-03-03T04:01:42.922Z,2.57
2023-03-03T04:04:10.773Z,2.56
2023-03-03T04:06:38.729Z,2.53
2023-03-03T04:09:06.958Z,2.49
2023-03-03T04:11:34.887Z,2.47
2023-03-03T04:14:03.605Z,2.48
2023-03-03T04:16:32.100Z,2.48
2023-03-03T04:19:00.028Z,2.48
2023-03-03T04:21:28.172Z,2.51
2023-03-03T04:23:57.778Z,2.52
2023-03-03T04:26:29.230Z,2.52
2023-03-03T04:29:01.161Z,2.53
2023-03-03T04:31:29.649Z,2.54
2023-03-03T04:33:57.637Z,2.56
2023-03-03T04:36:26.455Z,2.57
2023-03-03T04:38:54.597Z,2.56
2023-03-03T04:41:23.223Z,2.55
2023-03-03T04:43:51.331Z,2.56
2023-03-03T04:46:20.194Z,2.55
2023-03-03T04:48:48.574Z,2.56
2023-03-03T04:51:18.120Z,2.58
2023-03-03T04:53:46.937Z,2.58
2023-03-03T04:56:15.182Z,2.57
2023-03-03T04:58:45.364Z,2.57
2023-03-03T05:01:18.146Z,2.57
2023-03-03T05:03:46.066Z,2.58
2023-03-03T05:06:13.837Z,2.60
2023-03-03T05:08:42.744Z,2.63
2023-03-03T05:11:11.474Z,2.66
2023-03-03T05:13:39.414Z,2.68
2023-03-03T05:16:07.838Z,2.67
2023-03-03T05:18:35.875Z,2.66
2023-03-03T05:21:04.388Z,2.66
2023-03-03T05:23:32.303Z,2.67
2023-03-03T05:26:00.138Z,2.67
2023-03-03T05:28:28.743Z,2.67
2023-03-03T05:30:56.977Z,2.62
2023-03-03T05:33:25.147Z,2.61
2023-03-03T05:35:57.730Z,2.60
2023-03-03T05:38:25.868Z,2.59
2023-03-03T05:40:54.372Z,2.59
2023-03-03T05:43:22.485Z,2.59
2023-03-03T05:45:57.185Z,2.60
2023-03-03T05:48:25.413Z,2.61
2023-03-03T05:50:53.305Z,2.62
2023-03-03T05:53:21.483Z,2.63
2023-03-03T05:55:49.469Z,2.67
2023-03-03T05:58:17.535Z,2.68
2023-03-03T06:00:45.710Z,2.69
2023-03-03T06:03:13.796Z,2.68
2023-03-03T06:05:42.535Z,2.65
2023-03-03T06:08:10.379Z,2.63
2023-03-03T06:10:38.570Z,2.61
2023-03-03T06:13:07.286Z,2.60
2023-03-03T06:15:35.636Z,2.58
2023-03-03T06:18:04.943Z,2.59
2023-03-03T06:20:33.326Z,2.61
2023-03-03T06:23:01.740Z,2.65
2023-03-03T06:25:31.062Z,2.65
2023-03-03T06:27:59.157Z,2.64
2023-03-03T06:30:28.146Z,2.70
2023-03-03T06:32:56.327Z,2.73
2023-03-03T06:35:24.544Z,2.73
2023-03-03T06:37:52.582Z,2.75
2023-03-03T06:40:20.800Z,2.78
2023-03-03T06:42:49.639Z,2.84
2023-03-03T06:45:17.858Z,2.90
2023-03-03T06:47:46.289Z,2.90
2023-03-03T06:50:19.079Z,2.95
2023-03-03T06:52:47.041Z,2.98
2023-03-03T06:55:20.579Z,3.02
2023-03-03T06:57:48.993Z,3.08
2023-03-03T07:00:25.923Z,3.09
2023-03-03T07:03:01.815Z,3.13
2023-03-03T07:05:30.335Z,3.17
2023-03-03T07:07:58.946Z,3.21
2023-03-03T07:10:31.548Z,3.24
2023-03-03T07:13:04.880Z,3.27
2023-03-03T07:15:36.548Z,3.32
2023-03-03T07:18:24.627Z,3.42
2023-03-03T07:20:52.773Z,3.50
2023-03-03T07:23:41.971Z,3.62
2023-03-03T07:26:39.359Z,3.71
2023-03-03T07:29:23.061Z,3.81
2023-03-03T07:31:51.484Z,3.92
2023-03-03T07:34:42.794Z,4.01
2023-03-03T07:37:19.771Z,4.11
2023-03-03T07:39:49.605Z,4.18
2023-03-03T07:42:29.170Z,4.22
2023-03-03T07:45:26.586Z,4.29
2023-03-03T07:48:08.894Z,4.34
2023-03-03T07:50:41.677Z,4.40
2023-03-03T07:53:20.784Z,4.47
2023-03-03T07:55:49.485Z,4.55
2023-03-03T07:58:25.784Z,4.62
2023-03-03T08:01:35.771Z,4.68
2023-03-03T08:04:30.985Z,4.78
2023-03-03T08:07:02.113Z,4.85
2023-03-03T08:09:58.827Z,4.94
2023-03-03T08:12:41.226Z,5.06
2023-03-03T08:15:22.960Z,5.17
2023-03-03T08:17:54.319Z,5.37
2023-03-03T08:20:48.766Z,5.57
2023-03-03T08:23:25.657Z,5.72
2023-03-03T08:25:55.828Z,5.84
2023-03-03T08:28:24.277Z,5.96
2023-03-03T08:31:05.548Z,6.06
2023-03-03T08:33:24.173Z,6.12
2023-03-03T08:35:52.353Z,6.13
2023-03-03T08:38:24.386Z,6.17
2023-03-03T08:40:52.563Z,6.25
2023-03-03T08:43:22.531Z,6.33
2023-03-03T08:45:53.770Z,6.43
2023-03-03T08:48:26.507Z,6.54
2023-03-03T08:50:58.281Z,6.67
2023-03-03T08:53:27.663Z,6.74
2023-03-03T08:55:56.796Z,6.83
2023-03-03T08:58:34.691Z,6.92
2023-03-03T09:00:55.083Z,7.05
2023-03-03T09:03:23.396Z,7.20
2023-03-03T09:05:51.280Z,7.32
2023-03-03T09:08:19.692Z,7.38
2023-03-03T09:10:49.632Z,7.47
2023-03-03T09:13:22.087Z,7.60
2023-03-03T09:15:50.277Z,7.71
2023-03-03T09:18:37.245Z,7.76
2023-03-03T09:21:32.728Z,7.83
2023-03-03T09:24:08.990Z,7.96
2023-03-03T09:26:48.839Z,8.10
2023-03-03T09:29:34.273Z,8.21
2023-03-03T09:32:37.689Z,8.33
2023-03-03T09:35:42.925Z,8.40
2023-03-03T09:38:32.344Z,8.54
2023-03-03T09:41:23.999Z,8.75
2023-03-03T09:44:27.568Z,8.95
2023-03-03T09:47:06.865Z,9.26
2023-03-03T09:50:02.704Z,9.59
2023-03-03T09:53:04.900Z,10.01
2023-03-03T09:55:56.677Z,10.47
2023-03-03T09:58:47.058Z,10.91
2023-03-03T10:01:44.883Z,11.20
2023-03-03T10:04:36.351Z,11.37
2023-03-03T10:07:24.484Z,11.39
2023-03-03T10:10:16.928Z,11.56
2023-03-03T10:13:04.629Z,11.76
2023-03-03T10:16:00.580Z,11.87
2023-03-03T10:18:38.130Z,12.06
2023-03-03T10:21:20.692Z,12.28
2023-03-03T10:23:59.424Z,12.52
2023-03-03T10:27:05.261Z,12.56
2023-03-03T10:29:46.205Z,12.39
2023-03-03T10:32:28.972Z,12.23
2023-03-03T10:35:45.658Z,12.09
2023-03-03T10:38:35.541Z,11.86
2023-03-03T10:41:39.024Z,11.53
2023-03-03T10:44:38.042Z,11.35
2023-03-03T10:47:20.397Z,11.19
2023-03-03T10:50:33.812Z,10.87
2023-03-03T10:53:31.508Z,10.69
2023-03-03T10:56:23.053Z,10.56
2023-03-03T10:59:02.133Z,10.45
2023-03-03T11:02:07.233Z,10.20
2023-03-03T11:05:12.380Z,10.15
2023-03-03T11:07:48.481Z,10.34
2023-03-03T11:10:27.936Z,10.69
2023-03-03T11:13:03.119Z,10.99
2023-03-03T11:15:45.513Z,11.18
2023-03-03T11:18:34.021Z,11.19
2023-03-03T11:21:21.921Z,11.20
2023-03-03T11:24:15.183Z,11.43
2023-03-03T11:27:17.134Z,11.75
2023-03-03T11:30:16.453Z,11.99
2023-03-03T11:32:52.516Z,12.31
2023-03-03T11:35:27.803Z,12.52
2023-03-03T11:38:20.442Z,12.63
2023-03-03T11:40:56.419Z,12.55
2023-03-03T11:43:42.299Z,12.41
2023-03-03T11:46:13.340Z,12.05
2023-03-03T11:49:09.097Z,11.70
2023-03-03T11:52:03.548Z,11.36
2023-03-03T11:54:42.793Z,11.13
2023-03-03T11:57:25.330Z,11.02
2023-03-03T12:00:13.846Z,10.98
2023-03-03T12:03:10.170Z,10.85
2023-03-03T12:05:49.776Z,10.98
2023-03-03T12:08:37.986Z,11.13
2023-03-03T12:11:29.566Z,11.31
2023-03-03T12:14:26.627Z,11.65
2023-03-03T12:17:03.346Z,11.88
2023-03-03T12:19:53.485Z,11.91
2023-03-03T12:22:33.807Z,11.74
2023-03-03T12:25:28.175Z,11.69
2023-03-03T12:28:10.295Z,11.62
2023-03-03T12:31:15.735Z,11.45
2023-03-03T12:33:56.313Z,11.43
2023-03-03T12:36:47.292Z,11.67
2023-03-03T12:39:38.666Z,11.90
2023-03-03T12:42:43.844Z,11.87
2023-03-03T12:45:35.435Z,11.67
2023-03-03T12:48:32.583Z,11.49
2023-03-03T12:51:22.502Z,11.40
2023-03-03T12:54:37.202Z,11.49
2023-03-03T12:57:31.832Z,11.62
2023-03-03T13:00:23.730Z,11.64
2023-03-03T13:03:02.972Z,11.45
2023-03-03T13:06:05.802Z,11.30
2023-03-03T13:09:01.751Z,11.21
2023-03-03T13:11:33.008Z,11.10
2023-03-03T13:14:20.900Z,10.96
2023-03-03T13:16:56.712Z,10.82
2023-03-03T13:19:30.237Z,10.67
2023-03-03T13:22:09.050Z,10.68
2023-03-03T13:24:58.954Z,10.69
2023-03-03T13:27:35.253Z,10.77
2023-03-03T13:30:17.432Z,10.81
2023-03-03T13:32:59.066Z,10.87
2023-03-03T13:35:44.074Z,10.89
2023-03-03T13:38:16.979Z,10.64
2023-03-03T13:40:52.677Z,10.64
2023-03-03T13:43:27.447Z,10.62
2023-03-03T13:46:29.776Z,10.57
2023-03-03T13:49:25.682Z,10.54
2023-03-03T13:52:11.589Z,10.47
2023-03-03T13:55:02.976Z,10.33
2023-03-03T13:57:41.693Z,10.25
2023-03-03T14:00:30.279Z,10.22
2023-03-03T14:03:28.916Z,10.17
2023-03-03T14:06:09.218Z,10.11
2023-03-03T14:08:55.005Z,10.13
2023-03-03T14:11:31.942Z,10.10
2023-03-03T14:14:24.703Z,10.06
2023-03-03T14:17:25.289Z,10.04
2023-03-03T14:20:13.593Z,10.08
2023-03-03T14:22:54.777Z,10.11
2023-03-03T14:25:22.458Z,10.11
2023-03-03T14:28:01.551Z,10.06
2023-03-03T14:30:45.147Z,10.01
2023-03-03T14:33:18.146Z,9.99
2023-03-03T14:36:00.073Z,9.92
2023-03-03T14:38:38.869Z,9.87
2023-03-03T14:41:14.766Z,9.81
2023-03-03T14:44:12.112Z,9.76
2023-03-03T14:46:41.337Z,9.79
2023-03-03T14:49:30.019Z,9.76
2023-03-03T14:52:23.186Z,9.80
2023-03-03T14:54:59.344Z,9.82
2023-03-03T14:57:47.273Z,9.85
2023-03-03T15:00:23.602Z,9.84
2023-03-03T15:03:23.229Z,9.82
2023-03-03T15:05:57.427Z,9.80
2023-03-03T15:08:35.502Z,9.77
2023-03-03T15:11:20.362Z,9.71
2023-03-03T15:13:48.287Z,9.65
2023-03-03T15:16:23.598Z,9.58
2023-03-03T15:19:02.693Z,9.51
2023-03-03T15:21:34.820Z,9.47
2023-03-03T15:24:14.578Z,9.43
2023-03-03T15:26:56.337Z,9.41
2023-03-03T15:29:44.239Z,9.38
2023-03-03T15:32:30.947Z,9.34
2023-03-03T15:35:16.194Z,9.28
2023-03-03T15:37:58.618Z,9.19
2023-03-03T15:40:49.090Z,9.12
2023-03-03T15:43:45.260Z,9.04
2023-03-03T15:46:33.533Z,8.94
2023-03-03T15:49:24.877Z,8.85
2023-03-03T15:52:05.036Z,8.78
2023-03-03T15:55:04.079Z,8.70
2023-03-03T15:57:40.690Z,8.62
2023-03-03T16:00:54.898Z,8.53
2023-03-03T16:03:36.207Z,8.47
2023-03-03T16:06:18.292Z,8.34
2023-03-03T16:09:05.795Z,8.26
2023-03-03T16:12:12.500Z,8.17
2023-03-03T16:15:13.097Z,8.07
2023-03-03T16:18:00.857Z,7.94
2023-03-03T16:20:37.228Z,7.80
2023-03-03T16:23:35.298Z,7.72
2023-03-03T16:26:28.511Z,7.64
2023-03-03T16:29:14.167Z,7.55
2023-03-03T16:31:59.405Z,7.48
2023-03-03T16:34:32.552Z,7.41
2023-03-03T16:37:31.789Z,7.35
2023-03-03T16:40:24.605Z,7.29
2023-03-03T16:43:16.103Z,7.22
2023-03-03T16:45:47.312Z,7.16
2023-03-03T16:48:47.302Z,7.08
2023-03-03T16:51:46.049Z,7.02
2023-03-03T16:54:57.341Z,6.97
2023-03-03T16:57:47.998Z,6.89
2023-03-03T17:00:23.429Z,6.80
2023-03-03T17:03:24.714Z,6.71
2023-03-03T17:06:03.689Z,6.62
2023-03-03T17:09:02.285Z,6.51
2023-03-03T17:11:39.011Z,6.42
2023-03-03T17:14:18.729Z,6.31
2023-03-03T17:17:16.788Z,6.24
2023-03-03T17:19:56.894Z,6.13
2023-03-03T17:23:01.179Z,6.04
2023-03-03T17:25:57.380Z,5.96
2023-03-03T17:29:06.501Z,5.89
2023-03-03T17:31:46.682Z,5.85
2023-03-03T17:34:40.454Z,5.77
2023-03-03T17:37:33.861Z,5.71
2023-03-03T17:40:16.386Z,5.66
2023-03-03T17:42:55.896Z,5.61
2023-03-03T17:45:27.831Z,5.58
2023-03-03T17:48:10.229Z,5.52
2023-03-03T17:50:43.394Z,5.52
2023-03-03T17:53:37.638Z,5.53
2023-03-03T17:56:13.493Z,5.53
2023-03-03T17:59:04.446Z,5.52
2023-03-03T18:02:03.495Z,5.50
2023-03-03T18:04:56.999Z,5.50
2023-03-03T18:07:48.091Z,5.46
2023-03-03T18:10:42.977Z,5.43
2023-03-03T18:13:33.695Z,5.40
2023-03-03T18:16:19.424Z,5.35
2023-03-03T18:19:21.931Z,5.31
2023-03-03T18:22:07.223Z,5.29
2023-03-03T18:24:43.145Z,5.23
2023-03-03T18:27:37.128Z,5.21
2023-03-03T18:30:24.368Z,5.18
2023-03-03T18:33:00.850Z,5.15
2023-03-03T18:35:45.447Z,5.10
2023-03-03T18:38:29.108Z,5.05
2023-03-03T18:41:01.181Z,5.01
2023-03-03T18:43:47.863Z,4.96
2023-03-03T18:46:27.716Z,4.90
2023-03-03T18:49:08.818Z,4.86
2023-03-03T18:51:46.868Z,4.80
2023-03-03T18:54:25.024Z,4.74
2023-03-03T18:57:03.416Z,4.67
2023-03-03T18:59:40.564Z,4.63
2023-03-03T19:02:38.482Z,4.55
2023-03-03T19:05:20.407Z,4.49
2023-03-03T19:08:05.094Z,4.43
2023-03-03T19:10:50.363Z,4.37
2023-03-03T19:13:38.209Z,4.33
2023-03-03T19:16:28.128Z,4.27
2023-03-03T19:19:04.303Z,4.22
2023-03-03T19:21:35.437Z,4.15
2023-03-03T19:24:27.391Z,4.07
2023-03-03T19:27:27.381Z,3.97
2023-03-03T19:30:40.756Z,3.88
2023-03-03T19:33:35.331Z,3.82
2023-03-03T19:36:35.976Z,3.80
2023-03-03T19:39:24.032Z,3.78
2023-03-03T19:42:18.074Z,3.75
2023-03-03T19:45:07.336Z,3.71
2023-03-03T19:48:06.577Z,3.69
2023-03-03T19:50:44.846Z,3.65
2023-03-03T19:53:40.585Z,3.58
2023-03-03T19:56:45.754Z,3.53
2023-03-03T19:59:19.226Z,3.48
2023-03-03T20:02:04.265Z,3.41
2023-03-03T20:05:02.044Z,3.39
2023-03-03T20:07:44.163Z,3.35
2023-03-03T20:10:45.666Z,3.28
2023-03-03T20:13:51.311Z,3.23
2023-03-03T20:16:42.218Z,3.20
2023-03-03T20:19:44.218Z,3.14
2023-03-03T20:22:43.493Z,3.11
2023-03-03T20:25:28.930Z,3.09
2023-03-03T20:28:39.689Z,3.07
2023-03-03T20:31:33.440Z,3.04
2023-03-03T20:34:13.092Z,3.00
2023-03-03T20:37:08.221Z,2.92
2023-03-03T20:40:08.995Z,2.85
2023-03-03T20:43:12.665Z,2.78
2023-03-03T20:46:01.021Z,2.73
2023-03-03T20:48:46.542Z,2.64
2023-03-03T20:51:19.666Z,2.59
2023-03-03T20:54:02.310Z,2.50
2023-03-03T20:56:51.021Z,2.47
2023-03-03T20:59:31.119Z,2.42
2023-03-03T21:02:16.919Z,2.35
2023-03-03T21:04:45.317Z,2.32
2023-03-03T21:07:26.475Z,2.31
2023-03-03T21:10:16.931Z,2.28
2023-03-03T21:12:45.180Z,2.24
2023-03-03T21:15:30.187Z,2.20
2023-03-03T21:17:59.662Z,2.16
2023-03-03T21:20:34.894Z,2.12
2023-03-03T21:23:03.400Z,2.08
2023-03-03T21:25:44.380Z,2.02
2023-03-03T21:28:32.440Z,1.96
2023-03-03T21:31:17.760Z,1.92
2023-03-03T21:33:57.707Z,1.89
2023-03-03T21:36:40.284Z,1.85
2023-03-03T21:39:28.568Z,1.81
2023-03-03T21:42:15.634Z,1.77
2023-03-03T21:44:51.316Z,1.71
2023-03-03T21:47:22.383Z,1.67
2023-03-03T21:49:51.975Z,1.63
2023-03-03T21:52:27.642Z,1.55
2023-03-03T21:54:55.726Z,1.48
2023-03-03T21:57:25.582Z,1.42
2023-03-03T21:59:53.765Z,1.40
2023-03-03T22:02:21.663Z,1.38
2023-03-03T22:04:51.479Z,1.37
2023-03-03T22:07:19.209Z,1.35
2023-03-03T22:09:51.254Z,1.33
2023-03-03T22:12:19.105Z,1.30
2023-03-03T22:14:46.721Z,1.25
2023-03-03T22:17:14.940Z,1.17
2023-03-03T22:19:43.106Z,1.07
2023-03-03T22:22:13.893Z,1.00
2023-03-03T22:24:41.710Z,0.98
2023-03-03T22:27:11.697Z,0.97
2023-03-03T22:29:39.771Z,0.94
2023-03-03T22:32:07.506Z,0.95
2023-03-03T22:34:37.530Z,0.93
2023-03-03T22:37:05.272Z,0.91
2023-03-03T22:39:32.933Z,0.89
2023-03-03T22:42:00.694Z,0.88
2023-03-03T22:44:28.621Z,0.85
2023-03-03T22:46:56.709Z,0.81
2023-03-03T22:49:24.591Z,0.81
2023-03-03T22:51:52.668Z,0.78
2023-03-03T22:54:20.388Z,0.73
2023-03-03T22:56:47.973Z,0.67
2023-03-03T22:59:15.541Z,0.62
2023-03-03T23:01:43.211Z,0.58
2023-03-03T23:04:10.953Z,0.53
2023-03-03T23:06:38.740Z,0.48
2023-03-03T23:09:07.408Z,0.44
2023-03-03T23:11:35.063Z,0.41
2023-03-03T23:14:02.743Z,0.37
2023-03-03T23:16:30.421Z,0.33
2023-03-03T23:18:58.049Z,0.24
2023-03-03T23:21:25.775Z,0.16
2023-03-03T23:23:53.374Z,0.10
2023-03-03T23:26:21.242Z,0.09
2023-03-03T23:28:48.794Z,0.09
2023-03-03T23:31:16.501Z,0.05
2023-03-03T23:33:44.025Z,-0.01
2023-03-03T23:36:12.614Z,-0.04
2023-03-03T23:38:42.709Z,-0.07
2023-03-03T23:41:09.905Z,-0.09
2023-03-03T23:43:37.489Z,-0.11
2023-03-03T23:46:05.280Z,-0.12
2023-03-03T23:48:32.955Z,-0.13
2023-03-03T23:51:01.036Z,-0.13
2023-03-03T23:53:28.783Z,-0.13
2023-03-03T23:55:56.487Z,-0.11
2023-03-03T23:58:23.910Z,-0.10
